createdAt,value
2022-12-17T00:00:29.988Z,51.53
2022-12-17T00:03:19.565Z,50.92
2022-12-17T00:06:04.806Z,49.72
2022-12-17T00:08:49.677Z,50.78
2022-12-17T00:11:34.401Z,50.63
2022-12-17T00:14:19.238Z,50.13
2022-12-17T00:17:04.165Z,50.58
2022-12-17T00:19:49.247Z,52.22
2022-12-17T00:22:34.009Z,50.42
2022-12-17T00:25:18.686Z,50.65
2022-12-17T00:28:04.121Z,50.65
2022-12-17T00:30:49.008Z,50.20
2022-12-17T00:33:34.480Z,48.92
2022-12-17T00:36:19.964Z,49.15
2022-12-17T00:39:04.688Z,50.65
2022-12-17T00:41:49.571Z,48.88
2022-12-17T00:44:34.307Z,49.65
2022-12-17T00:47:19.038Z,48.30
2022-12-17T00:50:03.774Z,49.15
2022-12-17T00:52:48.703Z,49.80
2022-12-17T00:55:33.503Z,49.20
2022-12-17T00:58:18.389Z,47.20
2022-12-17T01:01:03.280Z,45.90
2022-12-17T01:03:48.172Z,48.75
2022-12-17T01:06:33.221Z,49.85
2022-12-17T01:09:31.690Z,50.17
2022-12-17T01:12:16.537Z,49.33
2022-12-17T01:15:01.333Z,48.85
2022-12-17T01:17:46.206Z,47.85
2022-12-17T01:20:31.077Z,42.20
2022-12-17T01:23:15.773Z,41.80
2022-12-17T01:26:00.643Z,43.60
2022-12-17T01:28:46.132Z,43.40
2022-12-17T01:31:34.979Z,43.33
2022-12-17T01:34:20.963Z,44.60
2022-12-17T01:37:06.115Z,42.92
2022-12-17T01:39:50.850Z,40.28
2022-12-17T01:42:35.649Z,40.75
2022-12-17T01:45:21.454Z,40.72
2022-12-17T01:48:12.325Z,38.40
2022-12-17T01:51:00.391Z,38.33
2022-12-17T01:53:47.978Z,38.33
2022-12-17T01:56:33.053Z,38.58
2022-12-17T01:59:18.062Z,38.05
2022-12-17T02:02:02.884Z,40.03
2022-12-17T02:04:48.145Z,40.33
2022-12-17T02:07:59.246Z,40.30
2022-12-17T02:10:49.091Z,37.70
2022-12-17T02:13:42.765Z,37.67
2022-12-17T02:16:32.914Z,37.55
2022-12-17T02:19:29.491Z,39.25
2022-12-17T02:22:16.981Z,36.70
2022-12-17T02:25:07.398Z,36.80
2022-12-17T02:27:52.843Z,37.45
2022-12-17T02:30:37.845Z,34.78
2022-12-17T02:33:23.430Z,35.60
2022-12-17T02:36:13.124Z,36.30
2022-12-17T02:38:58.290Z,36.40
2022-12-17T02:41:46.529Z,37.53
2022-12-17T02:44:34.270Z,38.55
2022-12-17T02:47:20.705Z,38.20
2022-12-17T02:50:05.865Z,39.30
2022-12-17T02:53:06.415Z,39.58
2022-12-17T02:55:52.938Z,40.17
2022-12-17T02:58:38.011Z,43.15
2022-12-17T03:01:23.061Z,46.13
2022-12-17T03:04:08.198Z,48.45
2022-12-17T03:06:53.440Z,50.65
2022-12-17T03:09:38.280Z,49.97
2022-12-17T03:12:23.497Z,51.83
2022-12-17T03:15:08.509Z,49.83
2022-12-17T03:17:53.304Z,51.78
2022-12-17T03:20:38.315Z,51.88
2022-12-17T03:23:25.558Z,51.65
2022-12-17T03:26:10.919Z,51.05
2022-12-17T03:28:55.893Z,52.38
2022-12-17T03:31:41.748Z,52.33
2022-12-17T03:34:26.875Z,52.03
2022-12-17T03:37:11.788Z,52.38
2022-12-17T03:39:56.658Z,50.28
2022-12-17T03:42:42.150Z,50.28
2022-12-17T03:45:28.032Z,50.45
2022-12-17T03:48:26.981Z,46.45
2022-12-17T03:51:13.139Z,46.55
2022-12-17T03:53:58.500Z,46.85
2022-12-17T03:56:43.437Z,47.47
2022-12-17T03:59:28.840Z,46.20
2022-12-17T04:02:14.293Z,48.45
2022-12-17T04:05:07.230Z,47.40
2022-12-17T04:10:37.059Z,43.30
2022-12-17T04:13:22.348Z,46.13
2022-12-17T04:16:07.404Z,47.20
2022-12-17T04:18:52.189Z,48.75
2022-12-17T04:21:36.909Z,47.35
2022-12-17T04:24:22.050Z,46.70
2022-12-17T04:27:06.799Z,45.15
2022-12-17T04:29:51.639Z,45.17
2022-12-17T04:32:36.624Z,50.08
2022-12-17T04:35:21.935Z,46.63
2022-12-17T04:38:07.215Z,43.47
2022-12-17T04:40:52.021Z,40.15
2022-12-17T04:43:37.256Z,40.85
2022-12-17T04:46:22.359Z,44.47
2022-12-17T04:49:07.496Z,43.65
2022-12-17T04:51:52.705Z,42.42
2022-12-17T04:54:37.669Z,43.92
2022-12-17T04:57:23.052Z,44.78
2022-12-17T05:00:07.824Z,44.45
2022-12-17T05:02:52.715Z,45.45
2022-12-17T05:05:37.878Z,46.97
2022-12-17T05:08:23.045Z,42.20
2022-12-17T05:11:08.123Z,42.22
2022-12-17T05:13:52.906Z,42.42
2022-12-17T05:16:37.944Z,42.50
2022-12-17T05:19:22.785Z,42.92
2022-12-17T05:22:07.699Z,41.10
2022-12-17T05:24:52.746Z,40.92
2022-12-17T05:27:37.676Z,41.80
2022-12-17T05:30:22.900Z,41.45
2022-12-17T05:33:19.811Z,42.25
2022-12-17T05:36:05.308Z,41.35
2022-12-17T05:38:50.651Z,41.15
2022-12-17T05:41:43.176Z,41.17
2022-12-17T05:44:28.573Z,40.15
2022-12-17T05:47:13.257Z,38.58
2022-12-17T05:49:58.186Z,37.20
2022-12-17T05:52:43.002Z,38.83
2022-12-17T05:55:27.639Z,39.90
2022-12-17T05:58:23.790Z,38.50
2022-12-17T06:01:09.349Z,36.38
2022-12-17T06:03:54.504Z,35.58
2022-12-17T06:06:39.588Z,35.35
2022-12-17T06:09:24.529Z,35.20
2022-12-17T06:12:09.373Z,35.75
2022-12-17T06:14:54.475Z,35.17
2022-12-17T06:17:39.280Z,34.40
2022-12-17T06:20:24.762Z,34.15
2022-12-17T06:23:19.711Z,35.63
2022-12-17T06:26:04.384Z,34.78
2022-12-17T06:28:49.209Z,35.28
2022-12-17T06:31:34.577Z,36.25
2022-12-17T06:34:19.808Z,36.78
2022-12-17T06:37:05.132Z,36.33
2022-12-17T06:39:49.799Z,36.85
2022-12-17T06:42:34.630Z,33.40
2022-12-17T06:45:19.313Z,32.63
2022-12-17T06:48:04.131Z,28.90
2022-12-17T06:50:59.505Z,32.22
2022-12-17T06:53:48.831Z,32.47
2022-12-17T06:56:33.502Z,30.95
2022-12-17T06:59:18.873Z,32.38
2022-12-17T07:02:04.162Z,36.80
2022-12-17T07:04:49.234Z,37.15
2022-12-17T07:07:34.446Z,41.47
2022-12-17T07:10:19.134Z,41.30
2022-12-17T07:13:03.901Z,40.22
2022-12-17T07:15:48.511Z,42.65
2022-12-17T07:18:34.047Z,41.22
2022-12-17T07:21:19.147Z,40.78
2022-12-17T07:24:04.019Z,43.05
2022-12-17T07:26:49.937Z,40.97
2022-12-17T07:29:34.623Z,40.47
2022-12-17T07:32:19.384Z,40.78
2022-12-17T07:35:04.145Z,40.75
2022-12-17T07:37:49.258Z,40.20
2022-12-17T07:40:34.384Z,40.47
2022-12-17T07:43:19.562Z,40.80
2022-12-17T07:46:05.122Z,38.20
2022-12-17T07:48:50.227Z,39.92
2022-12-17T07:51:35.050Z,40.70
2022-12-17T07:54:19.799Z,42.42
2022-12-17T07:57:04.712Z,41.53
2022-12-17T07:59:49.779Z,41.38
2022-12-17T08:02:34.768Z,43.50
2022-12-17T08:05:24.491Z,45.35
2022-12-17T08:08:09.274Z,45.40
2022-12-17T08:10:54.116Z,42.22
2022-12-17T08:13:39.605Z,42.53
2022-12-17T08:16:25.348Z,41.97
2022-12-17T08:19:10.569Z,40.58
2022-12-17T08:21:55.332Z,38.33
2022-12-17T08:24:40.398Z,36.05
2022-12-17T08:27:25.234Z,37.33
2022-12-17T08:30:10.127Z,38.88
2022-12-17T08:32:55.140Z,39.10
2022-12-17T08:35:40.198Z,40.30
2022-12-17T08:38:25.564Z,44.70
2022-12-17T08:41:10.562Z,42.47
2022-12-17T08:43:55.390Z,44.42
2022-12-17T08:46:40.477Z,42.80
2022-12-17T08:49:25.663Z,40.88
2022-12-17T08:52:10.725Z,38.78
2022-12-17T08:54:55.931Z,39.88
2022-12-17T08:57:40.919Z,39.90
2022-12-17T09:00:26.809Z,40.13
2022-12-17T09:03:19.664Z,38.22
2022-12-17T09:06:04.994Z,38.33
2022-12-17T09:08:49.923Z,39.78
2022-12-17T09:11:34.892Z,38.70
2022-12-17T09:14:19.757Z,39.55
2022-12-17T09:17:04.923Z,41.28
2022-12-17T09:19:50.301Z,38.25
2022-12-17T09:22:35.329Z,39.05
2022-12-17T09:25:20.015Z,41.28
2022-12-17T09:28:05.044Z,41.50
2022-12-17T09:30:50.155Z,39.60
2022-12-17T09:33:36.276Z,38.50
2022-12-17T09:36:23.561Z,37.83
2022-12-17T09:39:08.812Z,37.88
2022-12-17T09:42:31.464Z,38.20
2022-12-17T09:45:22.820Z,38.65
2022-12-17T09:48:29.459Z,38.47
2022-12-17T09:51:37.089Z,39.42
2022-12-17T09:54:22.679Z,36.85
2022-12-17T09:57:08.091Z,38.13
2022-12-17T09:59:53.548Z,38.95
2022-12-17T10:02:41.773Z,39.22
2022-12-17T10:05:32.936Z,40.70
2022-12-17T10:08:18.090Z,39.67
2022-12-17T10:11:04.595Z,38.70
2022-12-17T10:13:49.767Z,40.55
2022-12-17T10:16:39.729Z,40.15
2022-12-17T10:19:31.129Z,39.38
2022-12-17T10:22:28.970Z,40.55
2022-12-17T10:25:14.007Z,39.63
2022-12-17T10:27:59.083Z,40.50
2022-12-17T10:30:44.131Z,40.92
2022-12-17T10:33:39.322Z,42.35
2022-12-17T10:36:38.888Z,41.28
2022-12-17T10:39:24.441Z,41.35
2022-12-17T10:42:09.623Z,42.35
2022-12-17T10:44:55.869Z,42.60
2022-12-17T10:47:45.954Z,44.65
2022-12-17T10:50:34.612Z,41.20
2022-12-17T10:53:21.782Z,40.63
2022-12-17T10:56:15.931Z,39.20
2022-12-17T10:59:19.755Z,39.35
2022-12-17T11:02:04.626Z,40.63
2022-12-17T11:04:55.332Z,42.20
2022-12-17T11:07:44.592Z,41.45
2022-12-17T11:10:35.844Z,44.33
2022-12-17T11:13:23.876Z,43.13
2022-12-17T11:16:13.582Z,41.33
2022-12-17T11:18:58.576Z,41.88
2022-12-17T11:21:46.995Z,41.92
2022-12-17T11:24:43.236Z,40.40
2022-12-17T11:27:35.759Z,41.00
2022-12-17T11:30:20.799Z,39.55
2022-12-17T11:33:24.948Z,38.38
2022-12-17T11:36:25.849Z,33.33
2022-12-17T11:39:27.010Z,33.60
2022-12-17T11:42:11.870Z,34.13
2022-12-17T11:45:05.947Z,33.63
2022-12-17T11:48:13.016Z,32.38
2022-12-17T11:51:11.250Z,32.90
2022-12-17T11:54:52.068Z,32.13
2022-12-17T11:57:48.507Z,31.25
2022-12-17T12:00:41.135Z,33.13
2022-12-17T12:03:38.497Z,31.40
2022-12-17T12:06:36.442Z,32.63
2022-12-17T12:09:33.926Z,35.85
2022-12-17T12:12:31.126Z,36.50
2022-12-17T12:15:27.132Z,39.97
2022-12-17T12:18:22.282Z,43.78
2022-12-17T12:21:26.156Z,46.40
2022-12-17T12:24:16.103Z,46.92
2022-12-17T12:27:42.915Z,47.30
2022-12-17T12:30:32.265Z,45.80
2022-12-17T12:33:38.918Z,45.85
2022-12-17T12:36:27.246Z,42.63
2022-12-17T12:39:13.991Z,44.88
2022-12-17T12:42:08.685Z,45.40
2022-12-17T12:45:03.237Z,50.17
2022-12-17T12:48:01.420Z,48.95
2022-12-17T12:51:04.416Z,48.95
2022-12-17T12:56:45.388Z,48.45
2022-12-17T12:59:48.742Z,49.90
2022-12-17T13:02:44.350Z,51.20
2022-12-17T13:05:40.045Z,52.17
2022-12-17T13:08:20.709Z,50.53
2022-12-17T13:10:48.085Z,48.80
2022-12-17T13:13:26.763Z,45.80
2022-12-17T13:16:16.679Z,44.10
2022-12-17T13:18:43.113Z,40.60
2022-12-17T13:21:15.552Z,38.17
2022-12-17T13:26:23.669Z,35.00
2022-12-17T13:29:03.420Z,36.67
2022-12-17T13:31:41.157Z,36.65
2022-12-17T13:34:22.933Z,36.85
2022-12-17T13:37:07.131Z,37.00
2022-12-17T13:40:04.317Z,36.53
2022-12-17T13:42:32.674Z,37.83
2022-12-17T13:44:59.469Z,37.88
2022-12-17T13:47:35.061Z,37.13
2022-12-17T13:50:32.783Z,37.80
2022-12-17T13:52:50.285Z,38.85
2022-12-17T13:55:26.161Z,40.75
2022-12-17T13:57:53.686Z,40.30
2022-12-17T14:00:26.346Z,42.45
2022-12-17T14:02:53.703Z,43.65
2022-12-17T14:05:30.806Z,43.83
2022-12-17T14:08:02.172Z,43.78
2022-12-17T14:10:29.113Z,44.17
2022-12-17T14:13:05.826Z,45.05
2022-12-17T14:15:32.628Z,44.42
2022-12-17T14:17:59.599Z,43.60
2022-12-17T14:20:32.005Z,41.10
2022-12-17T14:25:34.239Z,39.28
2022-12-17T14:28:03.495Z,39.58
2022-12-17T14:30:32.981Z,39.92
2022-12-17T14:32:59.668Z,41.10
2022-12-17T14:35:31.992Z,43.28
2022-12-17T14:37:58.467Z,51.15
2022-12-17T14:40:25.444Z,56.47
2022-12-17T14:42:53.851Z,55.22
2022-12-17T14:45:20.224Z,51.78
2022-12-17T14:48:01.357Z,51.15
2022-12-17T14:50:34.054Z,49.83
2022-12-17T14:53:02.597Z,48.83
2022-12-17T14:55:32.055Z,49.25
2022-12-17T14:58:13.744Z,49.88
2022-12-17T15:00:43.148Z,48.90
2022-12-17T15:03:22.594Z,49.30
2022-12-17T15:05:53.011Z,48.60
2022-12-17T15:08:20.323Z,50.97
2022-12-17T15:10:46.773Z,49.55
2022-12-17T15:13:13.315Z,50.40
2022-12-17T15:15:39.773Z,51.15
2022-12-17T15:18:06.188Z,51.58
2022-12-17T15:20:32.648Z,49.50
2022-12-17T15:23:00.990Z,51.67
2022-12-17T15:25:27.493Z,53.85
2022-12-17T15:27:55.210Z,58.70
2022-12-17T15:30:21.728Z,58.40
2022-12-17T15:32:48.129Z,63.10
2022-12-17T15:35:14.852Z,64.25
2022-12-17T15:37:41.344Z,61.75
2022-12-17T15:40:10.691Z,61.13
2022-12-17T15:42:55.675Z,54.65
2022-12-17T15:45:22.115Z,53.05
2022-12-17T15:47:48.493Z,52.05
2022-12-17T15:50:14.896Z,55.78
2022-12-17T15:52:41.285Z,52.45
2022-12-17T15:55:07.952Z,50.33
2022-12-17T15:57:34.316Z,49.80
2022-12-17T16:00:00.680Z,50.08
2022-12-17T16:02:27.255Z,49.60
2022-12-17T16:04:53.922Z,47.63
2022-12-17T16:07:20.307Z,47.38
2022-12-17T16:09:46.679Z,45.35
2022-12-17T16:12:13.104Z,46.38
2022-12-17T16:14:39.556Z,46.55
2022-12-17T16:17:06.072Z,44.13
2022-12-17T16:19:32.563Z,45.58
2022-12-17T16:21:58.956Z,45.15
2022-12-17T16:24:25.394Z,44.13
2022-12-17T16:26:51.755Z,40.97
2022-12-17T16:29:18.176Z,43.53
2022-12-17T16:31:46.072Z,42.85
2022-12-17T16:34:13.039Z,43.88
2022-12-17T16:36:39.451Z,42.20
2022-12-17T16:39:05.975Z,44.72
2022-12-17T16:41:33.483Z,45.95
2022-12-17T16:44:00.662Z,46.08
2022-12-17T16:46:39.077Z,46.20
2022-12-17T16:49:23.341Z,44.90
2022-12-17T16:51:51.009Z,45.47
2022-12-17T16:54:20.340Z,43.05
2022-12-17T16:56:47.074Z,37.83
2022-12-17T16:59:14.791Z,34.50
2022-12-17T17:01:44.757Z,32.42
2022-12-17T17:04:12.913Z,30.10
2022-12-17T17:06:40.708Z,27.00
2022-12-17T17:09:07.380Z,28.15
2022-12-17T17:11:34.268Z,25.85
2022-12-17T17:14:00.773Z,25.13
2022-12-17T17:16:27.489Z,23.75
2022-12-17T17:18:54.255Z,24.25
2022-12-17T17:21:20.620Z,22.63
2022-12-17T17:23:48.857Z,22.48
2022-12-17T17:26:16.292Z,21.35
2022-12-17T17:28:42.722Z,21.98
2022-12-17T17:31:12.100Z,19.92
2022-12-17T17:33:43.022Z,21.15
2022-12-17T17:36:11.533Z,19.52
2022-12-17T17:38:39.141Z,20.45
2022-12-17T17:41:07.115Z,20.85
2022-12-17T17:43:33.477Z,21.42
2022-12-17T17:46:17.879Z,20.08
2022-12-17T17:48:46.024Z,20.58
2022-12-17T17:51:14.873Z,21.27
2022-12-17T17:53:42.223Z,20.63
2022-12-17T17:56:15.031Z,20.02
2022-12-17T17:58:49.722Z,19.00
2022-12-17T18:01:19.232Z,18.83
2022-12-17T18:03:45.923Z,19.02
2022-12-17T18:06:13.416Z,18.25
2022-12-17T18:08:40.896Z,18.45
2022-12-17T18:11:09.951Z,17.90
2022-12-17T18:13:54.949Z,17.77
2022-12-17T18:16:41.615Z,16.83
2022-12-17T18:19:16.001Z,16.58
2022-12-17T18:21:42.986Z,16.35
2022-12-17T18:24:15.270Z,18.88
2022-12-17T18:26:42.826Z,19.80
2022-12-17T18:29:15.586Z,19.50
2022-12-17T18:31:44.795Z,17.85
2022-12-17T18:34:15.767Z,17.73
2022-12-17T18:36:43.837Z,18.23
2022-12-17T18:39:15.389Z,22.35
2022-12-17T18:42:01.574Z,23.27
2022-12-17T18:44:29.748Z,22.52
2022-12-17T18:46:56.321Z,22.88
2022-12-17T18:49:26.831Z,21.10
2022-12-17T18:51:54.011Z,19.98
2022-12-17T18:54:25.794Z,18.98
2022-12-17T18:57:00.852Z,20.95
2022-12-17T18:59:29.394Z,18.25
2022-12-17T19:01:56.541Z,21.13
2022-12-17T19:04:23.865Z,23.45
2022-12-17T19:06:52.576Z,24.65
2022-12-17T19:09:23.066Z,22.20
2022-12-17T19:11:50.301Z,23.50
2022-12-17T19:14:17.807Z,26.10
2022-12-17T19:16:45.034Z,33.33
2022-12-17T19:19:12.514Z,35.70
2022-12-17T19:21:38.907Z,38.47
2022-12-17T19:24:07.412Z,35.53
2022-12-17T19:26:34.529Z,40.65
2022-12-17T19:29:01.134Z,35.53
2022-12-17T19:31:30.731Z,24.38
2022-12-17T19:33:59.256Z,20.75
2022-12-17T19:36:28.663Z,16.38
2022-12-17T19:38:57.449Z,16.92
2022-12-17T19:41:24.864Z,19.33
2022-12-17T19:43:56.424Z,20.05
2022-12-17T19:46:23.705Z,19.65
2022-12-17T19:48:50.742Z,18.40
2022-12-17T19:51:20.990Z,16.33
2022-12-17T19:53:47.781Z,15.32
2022-12-17T19:56:20.109Z,15.70
2022-12-17T20:01:38.230Z,23.02
2022-12-17T20:04:05.216Z,22.45
2022-12-17T20:06:33.519Z,21.83
2022-12-17T20:09:01.005Z,21.15
2022-12-17T20:11:33.964Z,20.90
2022-12-17T20:14:01.568Z,21.67
2022-12-17T20:16:29.983Z,29.50
2022-12-17T20:18:58.474Z,29.50
2022-12-17T20:21:24.895Z,30.13
2022-12-17T20:23:51.304Z,27.30
2022-12-17T20:26:18.371Z,28.77
2022-12-17T20:28:45.262Z,27.75
2022-12-17T20:31:12.152Z,33.30
2022-12-17T20:33:38.987Z,32.97
2022-12-17T20:36:11.195Z,34.15
2022-12-17T20:38:38.576Z,31.38
2022-12-17T20:41:11.007Z,31.35
2022-12-17T20:43:38.004Z,30.17
2022-12-17T20:46:04.944Z,31.27
2022-12-17T20:48:31.595Z,34.17
2022-12-17T20:50:57.992Z,37.67
2022-12-17T20:53:24.414Z,40.88
2022-12-17T20:56:01.824Z,39.00
2022-12-17T20:58:28.452Z,43.28
2022-12-17T21:01:15.677Z,43.58
2022-12-17T21:03:43.058Z,46.72
2022-12-17T21:06:21.135Z,47.65
2022-12-17T21:08:50.184Z,47.65
2022-12-17T21:11:22.871Z,46.17
2022-12-17T21:13:49.303Z,43.75
2022-12-17T21:16:18.748Z,43.40
2022-12-17T21:18:45.317Z,38.45
2022-12-17T21:21:14.211Z,34.85
2022-12-17T21:23:41.244Z,33.38
2022-12-17T21:26:19.754Z,32.63
2022-12-17T21:28:48.028Z,30.90
2022-12-17T21:31:17.973Z,29.80
2022-12-17T21:33:46.327Z,28.95
2022-12-17T21:36:13.683Z,15.88
2022-12-17T21:38:40.900Z,13.65
2022-12-17T21:41:12.996Z,12.32
2022-12-17T21:43:40.344Z,12.20
2022-12-17T21:46:08.153Z,13.27
2022-12-17T21:48:41.706Z,25.55
2022-12-17T21:51:11.879Z,26.33
2022-12-17T21:53:42.204Z,26.05
2022-12-17T21:56:14.156Z,26.23
2022-12-17T21:58:42.059Z,27.98
2022-12-17T22:01:25.014Z,28.05
2022-12-17T22:03:53.820Z,31.65
2022-12-17T22:06:25.086Z,31.27
2022-12-17T22:08:59.699Z,31.25
2022-12-17T22:11:28.754Z,33.33
2022-12-17T22:14:18.733Z,31.33
2022-12-17T22:16:49.144Z,24.40
2022-12-17T22:19:22.213Z,17.55
2022-12-17T22:21:49.705Z,14.82
2022-12-17T22:24:19.095Z,14.77
2022-12-17T22:26:46.017Z,15.93
2022-12-17T22:29:12.532Z,15.38
2022-12-17T22:31:57.646Z,14.40
2022-12-17T22:34:48.813Z,14.40
2022-12-17T22:39:16.818Z,14.32
2022-12-17T22:44:31.382Z,15.20
2022-12-17T22:44:42.955Z,14.55
2022-12-17T22:45:49.115Z,14.43
2022-12-17T22:48:15.709Z,14.88
2022-12-17T22:50:48.824Z,15.32
2022-12-17T22:53:29.041Z,17.27
2022-12-17T22:56:12.470Z,18.80
2022-12-17T22:58:45.317Z,21.63
2022-12-17T23:01:12.188Z,27.52
2022-12-17T23:03:39.084Z,28.65
2022-12-17T23:06:13.994Z,33.08
2022-12-17T23:08:40.958Z,35.10
2022-12-17T23:11:15.749Z,35.53
2022-12-17T23:13:42.739Z,33.10
2022-12-17T23:16:10.865Z,32.38
2022-12-17T23:18:37.694Z,31.67
2022-12-17T23:21:13.196Z,36.08
2022-12-17T23:23:40.175Z,38.63
2022-12-17T23:26:21.004Z,35.55
2022-12-17T23:28:48.305Z,36.95
2022-12-17T23:31:17.636Z,32.25
2022-12-17T23:33:44.953Z,28.92
2022-12-17T23:36:13.791Z,25.00
2022-12-17T23:38:40.689Z,23.05
2022-12-17T23:41:15.313Z,22.17
2022-12-17T23:43:42.182Z,25.00
2022-12-17T23:46:09.896Z,25.00
2022-12-17T23:48:43.535Z,26.17
2022-12-17T23:51:14.162Z,26.40
2022-12-17T23:53:41.157Z,25.48
2022-12-17T23:56:19.419Z,25.13
2022-12-17T23:58:46.538Z,25.40
